sensor_id;sensor_type;location;lat;lon;timestamp;temperature;humidity
39067;DHT22;24821;51.988;6.020;2022-12-11T00:02:01;1.70;99.90
39067;DHT22;24821;51.988;6.020;2022-12-11T00:04:27;1.70;99.90
39067;DHT22;24821;51.988;6.020;2022-12-11T00:06:52;1.60;99.90
39067;DHT22;24821;51.988;6.020;2022-12-11T00:09:19;1.70;99.90
39067;DHT22;24821;51.988;6.020;2022-12-11T00:11:45;1.60;99.90
39067;DHT22;24821;51.988;6.020;2022-12-11T00:14:12;1.70;99.90
39067;DHT22;24821;51.988;6.020;2022-12-11T00:16:38;1.70;99.90
39067;DHT22;24821;51.988;6.020;2022-12-11T00:19:04;1.70;99.90
39067;DHT22;24821;51.988;6.020;2022-12-11T00:21:29;1.70;99.90
39067;DHT22;24821;51.988;6.020;2022-12-11T00:23:55;1.70;99.90
39067;DHT22;24821;51.988;6.020;2022-12-11T00:26:21;1.70;99.90
39067;DHT22;24821;51.988;6.020;2022-12-11T00:28:46;1.70;99.90
39067;DHT22;24821;51.988;6.020;2022-12-11T00:31:15;1.70;99.90
39067;DHT22;24821;51.988;6.020;2022-12-11T00:33:42;1.80;99.90
39067;DHT22;24821;51.988;6.020;2022-12-11T00:36:16;1.70;99.90
39067;DHT22;24821;51.988;6.020;2022-12-11T00:38:42;1.70;99.90
39067;DHT22;24821;51.988;6.020;2022-12-11T00:41:09;1.70;99.90
39067;DHT22;24821;51.988;6.020;2022-12-11T00:43:34;1.70;99.90
39067;DHT22;24821;51.988;6.020;2022-12-11T00:46:00;1.70;99.90
39067;DHT22;24821;51.988;6.020;2022-12-11T00:48:26;1.70;99.90
39067;DHT22;24821;51.988;6.020;2022-12-11T00:50:51;1.80;99.90
39067;DHT22;24821;51.988;6.020;2022-12-11T00:53:17;1.80;99.90
39067;DHT22;24821;51.988;6.020;2022-12-11T00:55:43;1.80;99.90
39067;DHT22;24821;51.988;6.020;2022-12-11T00:58:09;1.80;99.90
39067;DHT22;24821;51.988;6.020;2022-12-11T01:00:36;1.80;99.90
39067;DHT22;24821;51.988;6.020;2022-12-11T01:03:01;1.80;99.90
39067;DHT22;24821;51.988;6.020;2022-12-11T01:05:27;1.80;99.90
39067;DHT22;24821;51.988;6.020;2022-12-11T01:07:53;1.80;99.90
39067;DHT22;24821;51.988;6.020;2022-12-11T01:10:19;1.80;99.90
39067;DHT22;24821;51.988;6.020;2022-12-11T01:13:06;1.90;99.90
39067;DHT22;24821;51.988;6.020;2022-12-11T01:15:38;1.90;99.90
39067;DHT22;24821;51.988;6.020;2022-12-11T01:18:04;1.90;99.90
39067;DHT22;24821;51.988;6.020;2022-12-11T01:20:30;1.90;99.90
39067;DHT22;24821;51.988;6.020;2022-12-11T01:22:58;1.90;99.90
39067;DHT22;24821;51.988;6.020;2022-12-11T01:25:26;2.00;99.90
39067;DHT22;24821;51.988;6.020;2022-12-11T01:27:53;2.00;99.90
39067;DHT22;24821;51.988;6.020;2022-12-11T01:30:20;2.00;99.90
39067;DHT22;24821;51.988;6.020;2022-12-11T01:32:46;2.00;99.90
39067;DHT22;24821;51.988;6.020;2022-12-11T01:35:11;2.00;99.90
39067;DHT22;24821;51.988;6.020;2022-12-11T01:37:37;1.90;99.90
39067;DHT22;24821;51.988;6.020;2022-12-11T01:40:04;1.90;99.90
39067;DHT22;24821;51.988;6.020;2022-12-11T01:42:30;1.90;99.90
39067;DHT22;24821;51.988;6.020;2022-12-11T01:45:27;1.90;99.90
39067;DHT22;24821;51.988;6.020;2022-12-11T01:48:17;2.00;99.90
39067;DHT22;24821;51.988;6.020;2022-12-11T01:50:52;2.00;99.90
39067;DHT22;24821;51.988;6.020;2022-12-11T01:53:22;1.90;99.90
39067;DHT22;24821;51.988;6.020;2022-12-11T01:55:51;1.90;99.90
39067;DHT22;24821;51.988;6.020;2022-12-11T01:58:20;2.00;99.90
39067;DHT22;24821;51.988;6.020;2022-12-11T02:00:46;2.00;99.90
39067;DHT22;24821;51.988;6.020;2022-12-11T02:03:12;2.00;99.90
39067;DHT22;24821;51.988;6.020;2022-12-11T02:05:38;2.00;99.90
39067;DHT22;24821;51.988;6.020;2022-12-11T02:08:04;2.00;99.90
39067;DHT22;24821;51.988;6.020;2022-12-11T02:13:42;2.00;99.90
39067;DHT22;24821;51.988;6.020;2022-12-11T02:16:11;1.90;99.90
39067;DHT22;24821;51.988;6.020;2022-12-11T02:18:47;1.90;99.90
39067;DHT22;24821;51.988;6.020;2022-12-11T02:29:38;1.90;99.90
39067;DHT22;24821;51.988;6.020;2022-12-11T02:32:18;1.80;99.90
39067;DHT22;24821;51.988;6.020;2022-12-11T02:35:10;1.90;99.90
39067;DHT22;24821;51.988;6.020;2022-12-11T02:37:40;1.90;99.90
39067;DHT22;24821;51.988;6.020;2022-12-11T02:40:10;1.90;99.90
39067;DHT22;24821;51.988;6.020;2022-12-11T02:42:39;1.90;99.90
39067;DHT22;24821;51.988;6.020;2022-12-11T02:45:06;1.90;99.90
39067;DHT22;24821;51.988;6.020;2022-12-11T02:47:33;1.90;99.90
39067;DHT22;24821;51.988;6.020;2022-12-11T02:50:01;2.00;99.90
39067;DHT22;24821;51.988;6.020;2022-12-11T02:52:30;2.00;99.90
39067;DHT22;24821;51.988;6.020;2022-12-11T02:54:58;2.00;99.90
39067;DHT22;24821;51.988;6.020;2022-12-11T03:00:10;2.00;99.90
39067;DHT22;24821;51.988;6.020;2022-12-11T03:02:37;2.00;99.90
39067;DHT22;24821;51.988;6.020;2022-12-11T03:05:03;2.00;99.90
39067;DHT22;24821;51.988;6.020;2022-12-11T03:07:33;2.00;99.90
39067;DHT22;24821;51.988;6.020;2022-12-11T03:09:59;2.00;99.90
39067;DHT22;24821;51.988;6.020;2022-12-11T03:12:30;2.00;99.90
39067;DHT22;24821;51.988;6.020;2022-12-11T03:15:03;2.00;99.90
39067;DHT22;24821;51.988;6.020;2022-12-11T03:20:32;2.00;99.90
39067;DHT22;24821;51.988;6.020;2022-12-11T03:26:11;2.00;99.90
39067;DHT22;24821;51.988;6.020;2022-12-11T03:28:43;2.00;99.90
39067;DHT22;24821;51.988;6.020;2022-12-11T03:31:24;2.00;99.90
39067;DHT22;24821;51.988;6.020;2022-12-11T03:33:53;2.10;99.90
39067;DHT22;24821;51.988;6.020;2022-12-11T03:36:24;2.10;99.90
39067;DHT22;24821;51.988;6.020;2022-12-11T03:39:07;2.10;99.90
39067;DHT22;24821;51.988;6.020;2022-12-11T03:41:35;2.00;99.90
39067;DHT22;24821;51.988;6.020;2022-12-11T03:44:02;2.00;99.90
39067;DHT22;24821;51.988;6.020;2022-12-11T03:46:31;2.10;99.90
39067;DHT22;24821;51.988;6.020;2022-12-11T03:49:04;2.10;99.90
39067;DHT22;24821;51.988;6.020;2022-12-11T03:51:31;2.10;99.90
39067;DHT22;24821;51.988;6.020;2022-12-11T03:53:58;2.10;99.90
39067;DHT22;24821;51.988;6.020;2022-12-11T03:56:26;2.10;99.90
39067;DHT22;24821;51.988;6.020;2022-12-11T03:58:52;2.10;99.90
39067;DHT22;24821;51.988;6.020;2022-12-11T04:01:18;2.20;99.90
39067;DHT22;24821;51.988;6.020;2022-12-11T04:03:44;2.20;99.90
39067;DHT22;24821;51.988;6.020;2022-12-11T04:06:09;2.20;99.90
39067;DHT22;24821;51.988;6.020;2022-12-11T04:08:35;2.20;99.90
39067;DHT22;24821;51.988;6.020;2022-12-11T04:11:03;2.30;99.90
39067;DHT22;24821;51.988;6.020;2022-12-11T04:13:48;2.30;99.90
39067;DHT22;24821;51.988;6.020;2022-12-11T04:16:34;2.40;99.90
39067;DHT22;24821;51.988;6.020;2022-12-11T04:18:59;2.30;99.90
39067;DHT22;24821;51.988;6.020;2022-12-11T04:21:43;2.30;99.90
39067;DHT22;24821;51.988;6.020;2022-12-11T04:24:28;2.30;99.90
39067;DHT22;24821;51.988;6.020;2022-12-11T04:26:54;2.30;99.90
39067;DHT22;24821;51.988;6.020;2022-12-11T04:29:19;2.30;99.90
39067;DHT22;24821;51.988;6.020;2022-12-11T04:31:45;2.30;99.90
39067;DHT22;24821;51.988;6.020;2022-12-11T04:34:11;2.30;99.90
39067;DHT22;24821;51.988;6.020;2022-12-11T04:36:37;2.30;99.90
39067;DHT22;24821;51.988;6.020;2022-12-11T04:39:04;2.30;99.90
39067;DHT22;24821;51.988;6.020;2022-12-11T04:41:29;2.30;99.90
39067;DHT22;24821;51.988;6.020;2022-12-11T04:43:55;2.30;99.90
39067;DHT22;24821;51.988;6.020;2022-12-11T04:46:23;2.30;99.90
39067;DHT22;24821;51.988;6.020;2022-12-11T04:48:50;2.30;99.90
39067;DHT22;24821;51.988;6.020;2022-12-11T04:51:16;2.30;99.90
39067;DHT22;24821;51.988;6.020;2022-12-11T04:53:43;2.30;99.90
39067;DHT22;24821;51.988;6.020;2022-12-11T04:56:11;2.40;99.90
39067;DHT22;24821;51.988;6.020;2022-12-11T04:58:38;2.40;99.90
39067;DHT22;24821;51.988;6.020;2022-12-11T05:01:16;2.40;99.90
39067;DHT22;24821;51.988;6.020;2022-12-11T05:03:42;2.40;99.90
39067;DHT22;24821;51.988;6.020;2022-12-11T05:06:09;2.50;99.90
39067;DHT22;24821;51.988;6.020;2022-12-11T05:08:36;2.50;99.90
39067;DHT22;24821;51.988;6.020;2022-12-11T05:11:05;2.50;99.90
39067;DHT22;24821;51.988;6.020;2022-12-11T05:13:32;2.50;99.90
39067;DHT22;24821;51.988;6.020;2022-12-11T05:15:57;2.50;99.90
39067;DHT22;24821;51.988;6.020;2022-12-11T05:18:23;2.50;99.90
39067;DHT22;24821;51.988;6.020;2022-12-11T05:21:09;2.50;99.90
39067;DHT22;24821;51.988;6.020;2022-12-11T05:23:35;2.60;99.90
39067;DHT22;24821;51.988;6.020;2022-12-11T05:26:03;2.50;99.90
39067;DHT22;24821;51.988;6.020;2022-12-11T05:28:31;2.50;99.90
39067;DHT22;24821;51.988;6.020;2022-12-11T05:30:59;2.50;99.90
39067;DHT22;24821;51.988;6.020;2022-12-11T05:33:25;2.40;99.90
39067;DHT22;24821;51.988;6.020;2022-12-11T05:35:51;2.50;99.90
39067;DHT22;24821;51.988;6.020;2022-12-11T05:38:17;2.50;99.90
39067;DHT22;24821;51.988;6.020;2022-12-11T05:40:42;2.50;99.90
39067;DHT22;24821;51.988;6.020;2022-12-11T05:43:08;2.50;99.90
39067;DHT22;24821;51.988;6.020;2022-12-11T05:45:34;2.50;99.90
39067;DHT22;24821;51.988;6.020;2022-12-11T05:47:59;2.50;99.90
39067;DHT22;24821;51.988;6.020;2022-12-11T05:50:25;2.50;99.90
39067;DHT22;24821;51.988;6.020;2022-12-11T05:52:51;2.50;99.90
39067;DHT22;24821;51.988;6.020;2022-12-11T05:55:16;2.50;99.90
39067;DHT22;24821;51.988;6.020;2022-12-11T05:57:42;2.50;99.90
39067;DHT22;24821;51.988;6.020;2022-12-11T06:00:08;2.50;99.90
39067;DHT22;24821;51.988;6.020;2022-12-11T06:02:34;2.40;99.90
39067;DHT22;24821;51.988;6.020;2022-12-11T06:05:00;2.50;99.90
39067;DHT22;24821;51.988;6.020;2022-12-11T06:07:26;2.50;99.90
39067;DHT22;24821;51.988;6.020;2022-12-11T06:09:51;2.40;99.90
39067;DHT22;24821;51.988;6.020;2022-12-11T06:12:17;2.40;99.90
39067;DHT22;24821;51.988;6.020;2022-12-11T06:14:43;2.40;99.90
39067;DHT22;24821;51.988;6.020;2022-12-11T06:17:08;2.40;99.90
39067;DHT22;24821;51.988;6.020;2022-12-11T06:19:34;2.40;99.90
39067;DHT22;24821;51.988;6.020;2022-12-11T06:22:00;2.40;99.90
39067;DHT22;24821;51.988;6.020;2022-12-11T06:24:25;2.40;99.90
39067;DHT22;24821;51.988;6.020;2022-12-11T06:26:51;2.50;99.90
39067;DHT22;24821;51.988;6.020;2022-12-11T06:29:16;2.50;99.90
39067;DHT22;24821;51.988;6.020;2022-12-11T06:31:42;2.50;99.90
39067;DHT22;24821;51.988;6.020;2022-12-11T06:34:10;2.50;99.90
39067;DHT22;24821;51.988;6.020;2022-12-11T06:36:35;2.50;99.90
39067;DHT22;24821;51.988;6.020;2022-12-11T06:39:01;2.40;99.90
39067;DHT22;24821;51.988;6.020;2022-12-11T06:41:26;2.40;99.90
39067;DHT22;24821;51.988;6.020;2022-12-11T06:43:52;2.30;99.90
39067;DHT22;24821;51.988;6.020;2022-12-11T06:46:18;2.40;99.90
39067;DHT22;24821;51.988;6.020;2022-12-11T06:48:45;2.40;99.90
39067;DHT22;24821;51.988;6.020;2022-12-11T06:51:13;2.40;99.90
39067;DHT22;24821;51.988;6.020;2022-12-11T06:53:39;2.40;99.90
39067;DHT22;24821;51.988;6.020;2022-12-11T06:56:07;2.50;99.90
39067;DHT22;24821;51.988;6.020;2022-12-11T06:58:34;2.50;99.90
39067;DHT22;24821;51.988;6.020;2022-12-11T07:01:00;2.50;99.90
39067;DHT22;24821;51.988;6.020;2022-12-11T07:03:26;2.50;99.90
39067;DHT22;24821;51.988;6.020;2022-12-11T07:05:52;2.50;99.90
39067;DHT22;24821;51.988;6.020;2022-12-11T07:08:17;2.50;99.90
39067;DHT22;24821;51.988;6.020;2022-12-11T07:10:43;2.50;99.90
39067;DHT22;24821;51.988;6.020;2022-12-11T07:13:08;2.50;99.90
39067;DHT22;24821;51.988;6.020;2022-12-11T07:15:35;2.50;99.90
39067;DHT22;24821;51.988;6.020;2022-12-11T07:18:00;2.50;99.90
39067;DHT22;24821;51.988;6.020;2022-12-11T07:20:26;2.50;99.90
39067;DHT22;24821;51.988;6.020;2022-12-11T07:22:52;2.50;99.90
39067;DHT22;24821;51.988;6.020;2022-12-11T07:25:18;2.50;99.90
39067;DHT22;24821;51.988;6.020;2022-12-11T07:27:44;2.50;99.90
39067;DHT22;24821;51.988;6.020;2022-12-11T07:30:11;2.50;99.90
39067;DHT22;24821;51.988;6.020;2022-12-11T07:32:37;2.50;99.90
39067;DHT22;24821;51.988;6.020;2022-12-11T07:35:03;2.50;99.90
39067;DHT22;24821;51.988;6.020;2022-12-11T07:37:29;2.50;99.90
39067;DHT22;24821;51.988;6.020;2022-12-11T07:39:55;2.50;99.90
39067;DHT22;24821;51.988;6.020;2022-12-11T07:42:20;2.50;99.90
39067;DHT22;24821;51.988;6.020;2022-12-11T07:44:46;2.40;99.90
39067;DHT22;24821;51.988;6.020;2022-12-11T07:47:11;2.40;99.90
39067;DHT22;24821;51.988;6.020;2022-12-11T07:49:37;2.50;99.90
39067;DHT22;24821;51.988;6.020;2022-12-11T07:52:03;2.50;99.90
39067;DHT22;24821;51.988;6.020;2022-12-11T07:54:28;2.40;99.90
39067;DHT22;24821;51.988;6.020;2022-12-11T07:56:54;2.50;99.90
39067;DHT22;24821;51.988;6.020;2022-12-11T07:59:19;2.50;99.90
39067;DHT22;24821;51.988;6.020;2022-12-11T08:01:45;2.50;99.90
39067;DHT22;24821;51.988;6.020;2022-12-11T08:04:11;2.40;99.90
39067;DHT22;24821;51.988;6.020;2022-12-11T08:06:40;2.50;99.90
39067;DHT22;24821;51.988;6.020;2022-12-11T08:09:08;2.40;99.90
39067;DHT22;24821;51.988;6.020;2022-12-11T08:11:34;2.40;99.90
39067;DHT22;24821;51.988;6.020;2022-12-11T08:14:00;2.40;99.90
39067;DHT22;24821;51.988;6.020;2022-12-11T08:16:27;2.30;99.90
39067;DHT22;24821;51.988;6.020;2022-12-11T08:18:52;2.30;99.90
39067;DHT22;24821;51.988;6.020;2022-12-11T08:21:22;2.30;99.90
39067;DHT22;24821;51.988;6.020;2022-12-11T08:23:49;2.30;99.90
39067;DHT22;24821;51.988;6.020;2022-12-11T08:26:17;2.30;99.90
39067;DHT22;24821;51.988;6.020;2022-12-11T08:28:43;2.40;99.90
39067;DHT22;24821;51.988;6.020;2022-12-11T08:31:11;2.40;99.90
39067;DHT22;24821;51.988;6.020;2022-12-11T08:33:38;2.30;99.90
39067;DHT22;24821;51.988;6.020;2022-12-11T08:36:06;2.30;99.90
39067;DHT22;24821;51.988;6.020;2022-12-11T08:38:33;2.30;99.90
39067;DHT22;24821;51.988;6.020;2022-12-11T08:41:13;2.30;99.90
39067;DHT22;24821;51.988;6.020;2022-12-11T08:43:39;2.40;99.90
39067;DHT22;24821;51.988;6.020;2022-12-11T08:46:05;2.30;99.90
39067;DHT22;24821;51.988;6.020;2022-12-11T08:48:32;2.30;99.90
39067;DHT22;24821;51.988;6.020;2022-12-11T08:50:59;2.30;99.90
39067;DHT22;24821;51.988;6.020;2022-12-11T08:53:29;2.40;99.90
39067;DHT22;24821;51.988;6.020;2022-12-11T08:56:05;2.40;99.90
39067;DHT22;24821;51.988;6.020;2022-12-11T08:58:31;2.40;99.90
39067;DHT22;24821;51.988;6.020;2022-12-11T09:00:56;2.40;99.90
39067;DHT22;24821;51.988;6.020;2022-12-11T09:03:23;2.40;99.90
39067;DHT22;24821;51.988;6.020;2022-12-11T09:05:48;2.40;99.90
39067;DHT22;24821;51.988;6.020;2022-12-11T09:08:14;2.40;99.90
39067;DHT22;24821;51.988;6.020;2022-12-11T09:10:39;2.40;99.90
39067;DHT22;24821;51.988;6.020;2022-12-11T09:13:05;2.30;99.90
39067;DHT22;24821;51.988;6.020;2022-12-11T09:15:30;2.30;99.90
39067;DHT22;24821;51.988;6.020;2022-12-11T09:17:56;2.30;99.90
39067;DHT22;24821;51.988;6.020;2022-12-11T09:20:21;2.30;99.90
39067;DHT22;24821;51.988;6.020;2022-12-11T09:22:47;2.30;99.90
39067;DHT22;24821;51.988;6.020;2022-12-11T09:25:13;2.30;99.90
39067;DHT22;24821;51.988;6.020;2022-12-11T09:27:39;2.30;99.90
39067;DHT22;24821;51.988;6.020;2022-12-11T09:30:05;2.30;99.90
39067;DHT22;24821;51.988;6.020;2022-12-11T09:32:31;2.30;99.90
39067;DHT22;24821;51.988;6.020;2022-12-11T09:34:56;2.30;99.90
39067;DHT22;24821;51.988;6.020;2022-12-11T09:37:22;2.20;99.90
39067;DHT22;24821;51.988;6.020;2022-12-11T09:39:47;2.30;99.90
39067;DHT22;24821;51.988;6.020;2022-12-11T09:42:23;2.30;99.90
39067;DHT22;24821;51.988;6.020;2022-12-11T09:45:00;2.30;99.90
39067;DHT22;24821;51.988;6.020;2022-12-11T09:47:47;2.40;99.90
39067;DHT22;24821;51.988;6.020;2022-12-11T09:50:26;2.40;99.90
39067;DHT22;24821;51.988;6.020;2022-12-11T09:55:21;2.40;99.90
39067;DHT22;24821;51.988;6.020;2022-12-11T09:58:00;2.40;99.90
39067;DHT22;24821;51.988;6.020;2022-12-11T10:00:39;2.40;99.90
39067;DHT22;24821;51.988;6.020;2022-12-11T10:06:20;2.50;99.90
39067;DHT22;24821;51.988;6.020;2022-12-11T10:14:20;2.60;99.90
39067;DHT22;24821;51.988;6.020;2022-12-11T10:17:09;2.60;99.90
39067;DHT22;24821;51.988;6.020;2022-12-11T10:19:36;2.60;99.90
39067;DHT22;24821;51.988;6.020;2022-12-11T10:22:02;2.50;99.90
39067;DHT22;24821;51.988;6.020;2022-12-11T10:24:53;2.60;99.90
39067;DHT22;24821;51.988;6.020;2022-12-11T10:27:23;2.60;99.90
39067;DHT22;24821;51.988;6.020;2022-12-11T10:30:12;2.60;99.90
39067;DHT22;24821;51.988;6.020;2022-12-11T10:35:42;2.60;99.90
39067;DHT22;24821;51.988;6.020;2022-12-11T10:38:23;2.70;99.90
39067;DHT22;24821;51.988;6.020;2022-12-11T10:40:55;2.70;99.90
39067;DHT22;24821;51.988;6.020;2022-12-11T10:43:35;2.70;99.90
39067;DHT22;24821;51.988;6.020;2022-12-11T10:46:01;2.70;99.90
39067;DHT22;24821;51.988;6.020;2022-12-11T10:48:26;2.70;99.90
39067;DHT22;24821;51.988;6.020;2022-12-11T10:50:58;2.80;99.90
39067;DHT22;24821;51.988;6.020;2022-12-11T10:53:25;2.80;99.90
39067;DHT22;24821;51.988;6.020;2022-12-11T10:55:51;2.80;99.90
39067;DHT22;24821;51.988;6.020;2022-12-11T10:58:21;2.80;99.90
39067;DHT22;24821;51.988;6.020;2022-12-11T11:01:07;2.80;99.90
39067;DHT22;24821;51.988;6.020;2022-12-11T11:03:50;2.80;99.90
39067;DHT22;24821;51.988;6.020;2022-12-11T11:06:18;2.80;99.90
39067;DHT22;24821;51.988;6.020;2022-12-11T11:08:48;2.80;99.90
39067;DHT22;24821;51.988;6.020;2022-12-11T11:11:27;2.80;99.90
39067;DHT22;24821;51.988;6.020;2022-12-11T11:14:16;2.80;99.90
39067;DHT22;24821;51.988;6.020;2022-12-11T11:16:45;2.80;99.90
39067;DHT22;24821;51.988;6.020;2022-12-11T11:22:02;2.90;99.90
39067;DHT22;24821;51.988;6.020;2022-12-11T11:24:35;2.90;99.90
39067;DHT22;24821;51.988;6.020;2022-12-11T11:27:11;2.90;99.90
39067;DHT22;24821;51.988;6.020;2022-12-11T11:29:37;2.90;99.90
39067;DHT22;24821;51.988;6.020;2022-12-11T11:32:16;2.90;99.90
39067;DHT22;24821;51.988;6.020;2022-12-11T11:34:43;2.90;99.90
39067;DHT22;24821;51.988;6.020;2022-12-11T11:37:25;2.90;99.90
39067;DHT22;24821;51.988;6.020;2022-12-11T11:39:58;2.90;99.90
39067;DHT22;24821;51.988;6.020;2022-12-11T11:45:14;2.90;99.90
39067;DHT22;24821;51.988;6.020;2022-12-11T11:47:51;2.90;99.90
39067;DHT22;24821;51.988;6.020;2022-12-11T11:50:24;2.90;99.90
39067;DHT22;24821;51.988;6.020;2022-12-11T11:52:59;2.90;99.90
39067;DHT22;24821;51.988;6.020;2022-12-11T11:58:18;2.90;99.90
39067;DHT22;24821;51.988;6.020;2022-12-11T12:00:47;2.90;99.90
39067;DHT22;24821;51.988;6.020;2022-12-11T12:03:16;2.90;99.90
39067;DHT22;24821;51.988;6.020;2022-12-11T12:08:40;2.90;99.90
39067;DHT22;24821;51.988;6.020;2022-12-11T12:14:08;2.80;99.90
39067;DHT22;24821;51.988;6.020;2022-12-11T12:17:13;2.80;99.90
39067;DHT22;24821;51.988;6.020;2022-12-11T12:20:05;2.80;99.90
39067;DHT22;24821;51.988;6.020;2022-12-11T12:31:02;2.80;99.90
39067;DHT22;24821;51.988;6.020;2022-12-11T12:36:45;2.80;99.90
39067;DHT22;24821;51.988;6.020;2022-12-11T12:39:23;2.70;99.90
39067;DHT22;24821;51.988;6.020;2022-12-11T12:42:05;2.70;99.90
39067;DHT22;24821;51.988;6.020;2022-12-11T12:47:17;2.60;99.90
39067;DHT22;24821;51.988;6.020;2022-12-11T12:49:48;2.60;99.90
39067;DHT22;24821;51.988;6.020;2022-12-11T12:52:21;2.70;99.90
39067;DHT22;24821;51.988;6.020;2022-12-11T12:54:51;2.60;99.90
39067;DHT22;24821;51.988;6.020;2022-12-11T12:57:39;2.70;99.90
39067;DHT22;24821;51.988;6.020;2022-12-11T13:00:07;2.70;99.90
39067;DHT22;24821;51.988;6.020;2022-12-11T13:02:36;2.70;99.90
39067;DHT22;24821;51.988;6.020;2022-12-11T13:05:14;2.70;99.90
39067;DHT22;24821;51.988;6.020;2022-12-11T13:07:48;2.70;99.90
39067;DHT22;24821;51.988;6.020;2022-12-11T13:10:32;2.70;99.90
39067;DHT22;24821;51.988;6.020;2022-12-11T13:12:59;2.70;99.90
39067;DHT22;24821;51.988;6.020;2022-12-11T13:15:31;2.70;99.90
39067;DHT22;24821;51.988;6.020;2022-12-11T13:17:58;2.70;99.90
39067;DHT22;24821;51.988;6.020;2022-12-11T13:20:30;2.80;99.90
39067;DHT22;24821;51.988;6.020;2022-12-11T13:25:31;2.80;99.90
39067;DHT22;24821;51.988;6.020;2022-12-11T13:28:05;2.80;99.90
39067;DHT22;24821;51.988;6.020;2022-12-11T13:30:31;2.90;99.90
39067;DHT22;24821;51.988;6.020;2022-12-11T13:33:23;2.80;99.90
39067;DHT22;24821;51.988;6.020;2022-12-11T13:38:34;2.80;99.90
39067;DHT22;24821;51.988;6.020;2022-12-11T13:41:01;2.70;99.90
39067;DHT22;24821;51.988;6.020;2022-12-11T13:43:32;2.70;99.90
39067;DHT22;24821;51.988;6.020;2022-12-11T13:45:59;2.70;99.90
39067;DHT22;24821;51.988;6.020;2022-12-11T13:48:34;2.70;99.90
39067;DHT22;24821;51.988;6.020;2022-12-11T13:51:01;2.70;99.90
39067;DHT22;24821;51.988;6.020;2022-12-11T13:53:27;2.70;99.90
39067;DHT22;24821;51.988;6.020;2022-12-11T13:56:03;2.70;99.90
39067;DHT22;24821;51.988;6.020;2022-12-11T13:58:33;2.70;99.90
39067;DHT22;24821;51.988;6.020;2022-12-11T14:01:09;2.70;99.90
39067;DHT22;24821;51.988;6.020;2022-12-11T14:03:39;2.70;99.90
39067;DHT22;24821;51.988;6.020;2022-12-11T14:06:09;2.70;99.90
39067;DHT22;24821;51.988;6.020;2022-12-11T14:08:38;2.80;99.90
39067;DHT22;24821;51.988;6.020;2022-12-11T14:11:05;2.80;99.90
39067;DHT22;24821;51.988;6.020;2022-12-11T14:13:36;2.70;99.90
39067;DHT22;24821;51.988;6.020;2022-12-11T14:16:03;2.70;99.90
39067;DHT22;24821;51.988;6.020;2022-12-11T14:18:31;2.70;99.90
39067;DHT22;24821;51.988;6.020;2022-12-11T14:21:02;2.60;99.90
39067;DHT22;24821;51.988;6.020;2022-12-11T14:23:34;2.60;99.90
39067;DHT22;24821;51.988;6.020;2022-12-11T14:26:17;2.60;99.90
39067;DHT22;24821;51.988;6.020;2022-12-11T14:28:43;2.60;99.90
39067;DHT22;24821;51.988;6.020;2022-12-11T14:31:14;2.60;99.90
39067;DHT22;24821;51.988;6.020;2022-12-11T14:33:43;2.60;99.90
39067;DHT22;24821;51.988;6.020;2022-12-11T14:36:10;2.60;99.90
39067;DHT22;24821;51.988;6.020;2022-12-11T14:38:39;2.60;99.90
39067;DHT22;24821;51.988;6.020;2022-12-11T14:41:24;2.60;99.90
39067;DHT22;24821;51.988;6.020;2022-12-11T14:43:53;2.60;99.90
39067;DHT22;24821;51.988;6.020;2022-12-11T14:46:37;2.60;99.90
39067;DHT22;24821;51.988;6.020;2022-12-11T14:49:35;2.60;99.90
39067;DHT22;24821;51.988;6.020;2022-12-11T14:51:57;2.60;99.90
39067;DHT22;24821;51.988;6.020;2022-12-11T14:54:31;2.60;99.90
39067;DHT22;24821;51.988;6.020;2022-12-11T14:56:59;2.60;99.90
39067;DHT22;24821;51.988;6.020;2022-12-11T14:59:27;2.60;99.90
39067;DHT22;24821;51.988;6.020;2022-12-11T15:02:27;2.60;99.90
39067;DHT22;24821;51.988;6.020;2022-12-11T15:05:18;2.60;99.90
39067;DHT22;24821;51.988;6.020;2022-12-11T15:08:01;2.70;99.90
39067;DHT22;24821;51.988;6.020;2022-12-11T15:10:34;2.70;99.90
39067;DHT22;24821;51.988;6.020;2022-12-11T15:13:02;2.60;99.90
39067;DHT22;24821;51.988;6.020;2022-12-11T15:15:32;2.60;99.90
39067;DHT22;24821;51.988;6.020;2022-12-11T15:17:58;2.60;99.90
39067;DHT22;24821;51.988;6.020;2022-12-11T15:20:27;2.60;99.90
39067;DHT22;24821;51.988;6.020;2022-12-11T15:22:54;2.50;99.90
39067;DHT22;24821;51.988;6.020;2022-12-11T15:25:24;2.50;99.90
39067;DHT22;24821;51.988;6.020;2022-12-11T15:27:52;2.50;99.90
39067;DHT22;24821;51.988;6.020;2022-12-11T15:32:46;2.50;99.90
39067;DHT22;24821;51.988;6.020;2022-12-11T15:35:25;2.50;99.90
39067;DHT22;24821;51.988;6.020;2022-12-11T15:37:53;2.60;99.90
39067;DHT22;24821;51.988;6.020;2022-12-11T15:40:18;2.50;99.90
39067;DHT22;24821;51.988;6.020;2022-12-11T15:42:44;2.60;99.90
39067;DHT22;24821;51.988;6.020;2022-12-11T15:45:36;2.50;99.90
39067;DHT22;24821;51.988;6.020;2022-12-11T15:48:02;2.50;99.90
39067;DHT22;24821;51.988;6.020;2022-12-11T15:50:28;2.50;99.90
39067;DHT22;24821;51.988;6.020;2022-12-11T15:52:55;2.50;99.90
39067;DHT22;24821;51.988;6.020;2022-12-11T15:55:22;2.50;99.90
39067;DHT22;24821;51.988;6.020;2022-12-11T15:57:53;2.40;99.90
39067;DHT22;24821;51.988;6.020;2022-12-11T16:00:20;2.40;99.90
39067;DHT22;24821;51.988;6.020;2022-12-11T16:02:46;2.40;99.90
39067;DHT22;24821;51.988;6.020;2022-12-11T16:05:13;2.40;99.90
39067;DHT22;24821;51.988;6.020;2022-12-11T16:07:38;2.40;99.90
39067;DHT22;24821;51.988;6.020;2022-12-11T16:10:06;2.50;99.90
39067;DHT22;24821;51.988;6.020;2022-12-11T16:12:32;2.50;99.90
39067;DHT22;24821;51.988;6.020;2022-12-11T16:14:58;2.40;99.90
39067;DHT22;24821;51.988;6.020;2022-12-11T16:17:23;2.40;99.90
39067;DHT22;24821;51.988;6.020;2022-12-11T16:19:49;2.40;99.90
39067;DHT22;24821;51.988;6.020;2022-12-11T16:22:15;2.50;99.90
39067;DHT22;24821;51.988;6.020;2022-12-11T16:24:41;2.40;99.90
39067;DHT22;24821;51.988;6.020;2022-12-11T16:27:08;2.40;99.90
39067;DHT22;24821;51.988;6.020;2022-12-11T16:29:39;2.50;99.90
39067;DHT22;24821;51.988;6.020;2022-12-11T16:32:06;2.50;99.90
39067;DHT22;24821;51.988;6.020;2022-12-11T16:34:33;2.50;99.90
39067;DHT22;24821;51.988;6.020;2022-12-11T16:36:59;2.50;99.90
39067;DHT22;24821;51.988;6.020;2022-12-11T16:39:25;2.50;99.90
39067;DHT22;24821;51.988;6.020;2022-12-11T16:41:51;2.50;99.90
39067;DHT22;24821;51.988;6.020;2022-12-11T16:44:22;2.50;99.90
39067;DHT22;24821;51.988;6.020;2022-12-11T16:46:48;2.50;99.90
39067;DHT22;24821;51.988;6.020;2022-12-11T16:49:15;2.50;99.90
39067;DHT22;24821;51.988;6.020;2022-12-11T16:51:41;2.50;99.90
39067;DHT22;24821;51.988;6.020;2022-12-11T16:54:07;2.50;99.90
39067;DHT22;24821;51.988;6.020;2022-12-11T16:56:32;2.50;99.90
39067;DHT22;24821;51.988;6.020;2022-12-11T16:59:00;2.50;99.90
39067;DHT22;24821;51.988;6.020;2022-12-11T17:01:26;2.50;99.90
39067;DHT22;24821;51.988;6.020;2022-12-11T17:03:52;2.50;99.90
39067;DHT22;24821;51.988;6.020;2022-12-11T17:06:17;2.50;99.90
39067;DHT22;24821;51.988;6.020;2022-12-11T17:08:44;2.50;99.90
39067;DHT22;24821;51.988;6.020;2022-12-11T17:11:16;2.50;99.90